sensor_id;sensor_type;location;lat;lon;timestamp;P1;durP1;ratioP1;P2;durP2;ratioP2
79410;SDS011;69635;50.964;6.948;2023-05-09T00:00:30;16.55;;;9.25;;
79410;SDS011;69635;50.964;6.948;2023-05-09T00:02:56;13.25;;;8.30;;
79410;SDS011;69635;50.964;6.948;2023-05-09T00:05:21;12.98;;;7.68;;
79410;SDS011;69635;50.964;6.948;2023-05-09T00:07:47;13.38;;;8.48;;
79410;SDS011;69635;50.964;6.948;2023-05-09T00:10:12;15.38;;;8.80;;
79410;SDS011;69635;50.964;6.948;2023-05-09T00:12:38;15.48;;;8.93;;
79410;SDS011;69635;50.964;6.948;2023-05-09T00:15:04;13.27;;;8.25;;
79410;SDS011;69635;50.964;6.948;2023-05-09T00:17:32;13.75;;;8.93;;
79410;SDS011;69635;50.964;6.948;2023-05-09T00:19:58;14.23;;;9.38;;
79410;SDS011;69635;50.964;6.948;2023-05-09T00:22:25;15.55;;;9.25;;
79410;SDS011;69635;50.964;6.948;2023-05-09T00:24:51;15.27;;;9.65;;
79410;SDS011;69635;50.964;6.948;2023-05-09T00:27:17;14.80;;;9.68;;
79410;SDS011;69635;50.964;6.948;2023-05-09T00:29:43;13.23;;;8.70;;
79410;SDS011;69635;50.964;6.948;2023-05-09T00:32:09;14.65;;;9.27;;
79410;SDS011;69635;50.964;6.948;2023-05-09T00:34:34;14.25;;;9.10;;
79410;SDS011;69635;50.964;6.948;2023-05-09T00:37:00;15.00;;;8.98;;
79410;SDS011;69635;50.964;6.948;2023-05-09T00:39:26;15.20;;;9.68;;
79410;SDS011;69635;50.964;6.948;2023-05-09T00:41:51;16.98;;;8.77;;
79410;SDS011;69635;50.964;6.948;2023-05-09T00:44:17;14.57;;;8.90;;
79410;SDS011;69635;50.964;6.948;2023-05-09T00:46:42;11.88;;;8.63;;
79410;SDS011;69635;50.964;6.948;2023-05-09T00:49:08;16.33;;;10.25;;
79410;SDS011;69635;50.964;6.948;2023-05-09T00:51:37;14.25;;;9.48;;
79410;SDS011;69635;50.964;6.948;2023-05-09T00:54:04;15.93;;;10.00;;
79410;SDS011;69635;50.964;6.948;2023-05-09T00:56:30;14.75;;;9.25;;
79410;SDS011;69635;50.964;6.948;2023-05-09T00:58:55;16.58;;;10.60;;
79410;SDS011;69635;50.964;6.948;2023-05-09T01:01:21;17.10;;;10.73;;
79410;SDS011;69635;50.964;6.948;2023-05-09T01:03:46;18.63;;;9.27;;
79410;SDS011;69635;50.964;6.948;2023-05-09T01:09:18;15.30;;;10.32;;
79410;SDS011;69635;50.964;6.948;2023-05-09T01:12:07;16.25;;;9.80;;
79410;SDS011;69635;50.964;6.948;2023-05-09T01:14:56;16.88;;;10.10;;
79410;SDS011;69635;50.964;6.948;2023-05-09T01:23:09;17.27;;;9.88;;
79410;SDS011;69635;50.964;6.948;2023-05-09T01:26:03;16.00;;;10.32;;
79410;SDS011;69635;50.964;6.948;2023-05-09T01:31:49;16.38;;;10.45;;
79410;SDS011;69635;50.964;6.948;2023-05-09T01:34:17;16.83;;;10.65;;
79410;SDS011;69635;50.964;6.948;2023-05-09T01:36:45;16.27;;;10.85;;
79410;SDS011;69635;50.964;6.948;2023-05-09T01:39:14;17.17;;;10.55;;
79410;SDS011;69635;50.964;6.948;2023-05-09T01:41:41;19.23;;;11.05;;
79410;SDS011;69635;50.964;6.948;2023-05-09T01:44:08;19.58;;;10.77;;
79410;SDS011;69635;50.964;6.948;2023-05-09T01:46:36;18.42;;;10.43;;
79410;SDS011;69635;50.964;6.948;2023-05-09T01:49:02;19.70;;;11.82;;
79410;SDS011;69635;50.964;6.948;2023-05-09T01:51:29;18.98;;;11.73;;
79410;SDS011;69635;50.964;6.948;2023-05-09T01:53:57;19.52;;;11.15;;
79410;SDS011;69635;50.964;6.948;2023-05-09T01:56:24;18.58;;;10.95;;
79410;SDS011;69635;50.964;6.948;2023-05-09T01:58:50;19.77;;;11.35;;
79410;SDS011;69635;50.964;6.948;2023-05-09T02:01:17;20.63;;;11.18;;
79410;SDS011;69635;50.964;6.948;2023-05-09T02:03:44;17.95;;;11.52;;
79410;SDS011;69635;50.964;6.948;2023-05-09T02:06:11;20.88;;;12.18;;
79410;SDS011;69635;50.964;6.948;2023-05-09T02:08:37;18.15;;;11.15;;
79410;SDS011;69635;50.964;6.948;2023-05-09T02:11:05;16.90;;;10.88;;
79410;SDS011;69635;50.964;6.948;2023-05-09T02:13:31;19.73;;;11.82;;
79410;SDS011;69635;50.964;6.948;2023-05-09T02:15:56;19.25;;;11.10;;
79410;SDS011;69635;50.964;6.948;2023-05-09T02:18:22;17.65;;;11.15;;
79410;SDS011;69635;50.964;6.948;2023-05-09T02:20:48;18.17;;;10.13;;
79410;SDS011;69635;50.964;6.948;2023-05-09T02:23:13;18.83;;;12.10;;
79410;SDS011;69635;50.964;6.948;2023-05-09T02:25:39;23.48;;;12.50;;
79410;SDS011;69635;50.964;6.948;2023-05-09T02:28:05;19.08;;;11.05;;
79410;SDS011;69635;50.964;6.948;2023-05-09T02:30:34;18.38;;;11.00;;
79410;SDS011;69635;50.964;6.948;2023-05-09T02:33:05;22.13;;;11.88;;
79410;SDS011;69635;50.964;6.948;2023-05-09T02:35:32;20.33;;;11.02;;
79410;SDS011;69635;50.964;6.948;2023-05-09T02:37:59;18.30;;;11.20;;
79410;SDS011;69635;50.964;6.948;2023-05-09T02:40:27;20.95;;;12.38;;
79410;SDS011;69635;50.964;6.948;2023-05-09T02:42:54;18.83;;;11.45;;
79410;SDS011;69635;50.964;6.948;2023-05-09T02:45:19;20.92;;;12.10;;
79410;SDS011;69635;50.964;6.948;2023-05-09T02:47:45;19.60;;;11.77;;
79410;SDS011;69635;50.964;6.948;2023-05-09T02:50:10;20.70;;;11.45;;
79410;SDS011;69635;50.964;6.948;2023-05-09T02:52:36;19.90;;;10.82;;
79410;SDS011;69635;50.964;6.948;2023-05-09T02:55:02;18.95;;;10.60;;
79410;SDS011;69635;50.964;6.948;2023-05-09T02:57:28;21.70;;;12.20;;
79410;SDS011;69635;50.964;6.948;2023-05-09T02:59:53;20.05;;;11.30;;
79410;SDS011;69635;50.964;6.948;2023-05-09T03:02:19;17.58;;;10.27;;
79410;SDS011;69635;50.964;6.948;2023-05-09T03:04:44;19.40;;;9.95;;
79410;SDS011;69635;50.964;6.948;2023-05-09T03:07:10;15.13;;;7.75;;
79410;SDS011;69635;50.964;6.948;2023-05-09T03:09:36;14.27;;;6.95;;
79410;SDS011;69635;50.964;6.948;2023-05-09T03:12:01;10.43;;;6.40;;
79410;SDS011;69635;50.964;6.948;2023-05-09T03:14:27;8.32;;;3.90;;
79410;SDS011;69635;50.964;6.948;2023-05-09T03:16:53;7.20;;;4.30;;
79410;SDS011;69635;50.964;6.948;2023-05-09T03:19:18;10.95;;;4.60;;
79410;SDS011;69635;50.964;6.948;2023-05-09T03:21:44;6.00;;;3.28;;
79410;SDS011;69635;50.964;6.948;2023-05-09T03:24:09;6.53;;;3.70;;
79410;SDS011;69635;50.964;6.948;2023-05-09T03:26:35;8.35;;;4.38;;
79410;SDS011;69635;50.964;6.948;2023-05-09T03:29:00;8.32;;;4.97;;
79410;SDS011;69635;50.964;6.948;2023-05-09T03:31:26;7.38;;;3.90;;
79410;SDS011;69635;50.964;6.948;2023-05-09T03:33:52;6.72;;;3.20;;
79410;SDS011;69635;50.964;6.948;2023-05-09T03:36:17;5.57;;;3.75;;
79410;SDS011;69635;50.964;6.948;2023-05-09T03:38:43;10.50;;;4.28;;
79410;SDS011;69635;50.964;6.948;2023-05-09T03:41:08;9.65;;;4.43;;
79410;SDS011;69635;50.964;6.948;2023-05-09T03:43:34;6.93;;;4.18;;
79410;SDS011;69635;50.964;6.948;2023-05-09T03:45:59;7.55;;;4.32;;
79410;SDS011;69635;50.964;6.948;2023-05-09T03:48:25;7.35;;;4.28;;
79410;SDS011;69635;50.964;6.948;2023-05-09T03:50:50;8.50;;;4.18;;
79410;SDS011;69635;50.964;6.948;2023-05-09T03:53:15;7.07;;;3.65;;
79410;SDS011;69635;50.964;6.948;2023-05-09T03:55:41;5.95;;;4.10;;
79410;SDS011;69635;50.964;6.948;2023-05-09T03:58:06;8.95;;;4.53;;
79410;SDS011;69635;50.964;6.948;2023-05-09T04:00:32;7.72;;;4.15;;
79410;SDS011;69635;50.964;6.948;2023-05-09T04:02:57;5.93;;;3.40;;
79410;SDS011;69635;50.964;6.948;2023-05-09T04:05:22;8.60;;;4.50;;
79410;SDS011;69635;50.964;6.948;2023-05-09T04:07:48;6.60;;;4.05;;
79410;SDS011;69635;50.964;6.948;2023-05-09T04:10:13;9.10;;;4.18;;
79410;SDS011;69635;50.964;6.948;2023-05-09T04:12:39;7.22;;;3.75;;
79410;SDS011;69635;50.964;6.948;2023-05-09T04:15:05;6.97;;;3.97;;
79410;SDS011;69635;50.964;6.948;2023-05-09T04:17:31;9.80;;;5.75;;
79410;SDS011;69635;50.964;6.948;2023-05-09T04:19:56;6.70;;;4.15;;
79410;SDS011;69635;50.964;6.948;2023-05-09T04:22:21;8.85;;;4.70;;
79410;SDS011;69635;50.964;6.948;2023-05-09T04:24:47;9.77;;;5.18;;
79410;SDS011;69635;50.964;6.948;2023-05-09T04:27:12;7.18;;;3.85;;
79410;SDS011;69635;50.964;6.948;2023-05-09T04:29:37;6.80;;;4.15;;
79410;SDS011;69635;50.964;6.948;2023-05-09T04:32:03;4.35;;;2.05;;
79410;SDS011;69635;50.964;6.948;2023-05-09T04:34:29;2.22;;;1.95;;
79410;SDS011;69635;50.964;6.948;2023-05-09T04:36:54;5.80;;;2.92;;
79410;SDS011;69635;50.964;6.948;2023-05-09T04:39:20;3.50;;;1.98;;
79410;SDS011;69635;50.964;6.948;2023-05-09T04:41:45;5.45;;;3.17;;
79410;SDS011;69635;50.964;6.948;2023-05-09T04:44:15;6.53;;;2.78;;
79410;SDS011;69635;50.964;6.948;2023-05-09T04:46:41;4.28;;;2.13;;
79410;SDS011;69635;50.964;6.948;2023-05-09T04:49:06;4.03;;;1.77;;
79410;SDS011;69635;50.964;6.948;2023-05-09T04:51:32;4.40;;;2.95;;
79410;SDS011;69635;50.964;6.948;2023-05-09T04:53:57;3.80;;;2.42;;
79410;SDS011;69635;50.964;6.948;2023-05-09T04:56:23;6.72;;;3.40;;
79410;SDS011;69635;50.964;6.948;2023-05-09T04:58:48;4.78;;;2.28;;
79410;SDS011;69635;50.964;6.948;2023-05-09T05:01:13;3.70;;;2.13;;
79410;SDS011;69635;50.964;6.948;2023-05-09T05:03:40;5.07;;;2.28;;
79410;SDS011;69635;50.964;6.948;2023-05-09T05:06:06;3.75;;;2.42;;
79410;SDS011;69635;50.964;6.948;2023-05-09T05:08:31;3.28;;;1.92;;
79410;SDS011;69635;50.964;6.948;2023-05-09T05:10:57;6.60;;;2.65;;
79410;SDS011;69635;50.964;6.948;2023-05-09T05:13:22;3.38;;;2.50;;
79410;SDS011;69635;50.964;6.948;2023-05-09T05:15:48;3.90;;;2.25;;
79410;SDS011;69635;50.964;6.948;2023-05-09T05:18:13;3.65;;;2.67;;
79410;SDS011;69635;50.964;6.948;2023-05-09T05:20:39;3.03;;;2.67;;
79410;SDS011;69635;50.964;6.948;2023-05-09T05:23:05;4.97;;;3.20;;
79410;SDS011;69635;50.964;6.948;2023-05-09T05:25:31;5.18;;;2.70;;
79410;SDS011;69635;50.964;6.948;2023-05-09T05:27:56;5.00;;;2.72;;
79410;SDS011;69635;50.964;6.948;2023-05-09T05:30:22;5.05;;;2.35;;
79410;SDS011;69635;50.964;6.948;2023-05-09T05:32:47;4.63;;;2.35;;
79410;SDS011;69635;50.964;6.948;2023-05-09T05:35:12;3.97;;;2.00;;
79410;SDS011;69635;50.964;6.948;2023-05-09T05:37:38;3.45;;;2.53;;
79410;SDS011;69635;50.964;6.948;2023-05-09T05:40:05;5.20;;;2.30;;
79410;SDS011;69635;50.964;6.948;2023-05-09T05:42:31;4.60;;;2.78;;
79410;SDS011;69635;50.964;6.948;2023-05-09T05:44:57;4.28;;;2.03;;
79410;SDS011;69635;50.964;6.948;2023-05-09T05:47:29;6.75;;;3.97;;
79410;SDS011;69635;50.964;6.948;2023-05-09T05:49:59;4.07;;;2.90;;
79410;SDS011;69635;50.964;6.948;2023-05-09T05:52:24;5.50;;;2.63;;
79410;SDS011;69635;50.964;6.948;2023-05-09T05:54:53;3.10;;;1.92;;
79410;SDS011;69635;50.964;6.948;2023-05-09T05:57:18;3.90;;;2.60;;
79410;SDS011;69635;50.964;6.948;2023-05-09T05:59:48;3.38;;;2.80;;
79410;SDS011;69635;50.964;6.948;2023-05-09T06:02:14;4.88;;;2.53;;
79410;SDS011;69635;50.964;6.948;2023-05-09T06:04:42;6.10;;;3.20;;
79410;SDS011;69635;50.964;6.948;2023-05-09T06:07:08;4.68;;;3.22;;
79410;SDS011;69635;50.964;6.948;2023-05-09T06:09:35;4.03;;;2.70;;
79410;SDS011;69635;50.964;6.948;2023-05-09T06:12:00;4.60;;;1.70;;
79410;SDS011;69635;50.964;6.948;2023-05-09T06:14:25;3.67;;;2.80;;
79410;SDS011;69635;50.964;6.948;2023-05-09T06:16:52;6.00;;;3.08;;
79410;SDS011;69635;50.964;6.948;2023-05-09T06:19:17;5.03;;;2.08;;
79410;SDS011;69635;50.964;6.948;2023-05-09T06:21:43;6.60;;;3.03;;
79410;SDS011;69635;50.964;6.948;2023-05-09T06:24:08;4.63;;;2.67;;
79410;SDS011;69635;50.964;6.948;2023-05-09T06:26:34;3.72;;;2.20;;
79410;SDS011;69635;50.964;6.948;2023-05-09T06:29:00;3.97;;;2.28;;
79410;SDS011;69635;50.964;6.948;2023-05-09T06:31:25;4.28;;;2.20;;
79410;SDS011;69635;50.964;6.948;2023-05-09T06:33:51;3.22;;;2.20;;
79410;SDS011;69635;50.964;6.948;2023-05-09T06:36:16;3.35;;;2.47;;
79410;SDS011;69635;50.964;6.948;2023-05-09T06:38:42;4.80;;;3.08;;
79410;SDS011;69635;50.964;6.948;2023-05-09T06:41:07;4.68;;;3.00;;
79410;SDS011;69635;50.964;6.948;2023-05-09T06:43:32;3.15;;;2.67;;
79410;SDS011;69635;50.964;6.948;2023-05-09T06:45:58;3.90;;;2.38;;
79410;SDS011;69635;50.964;6.948;2023-05-09T06:48:23;4.70;;;2.58;;
79410;SDS011;69635;50.964;6.948;2023-05-09T06:50:49;3.22;;;2.47;;
79410;SDS011;69635;50.964;6.948;2023-05-09T06:53:14;5.15;;;3.20;;
79410;SDS011;69635;50.964;6.948;2023-05-09T06:55:40;5.88;;;2.95;;
79410;SDS011;69635;50.964;6.948;2023-05-09T06:58:06;3.90;;;2.63;;
79410;SDS011;69635;50.964;6.948;2023-05-09T07:00:32;3.20;;;2.45;;
79410;SDS011;69635;50.964;6.948;2023-05-09T07:02:57;5.88;;;3.58;;
79410;SDS011;69635;50.964;6.948;2023-05-09T07:05:23;4.55;;;2.92;;
79410;SDS011;69635;50.964;6.948;2023-05-09T07:07:48;4.55;;;2.13;;
79410;SDS011;69635;50.964;6.948;2023-05-09T07:10:14;4.50;;;2.63;;
79410;SDS011;69635;50.964;6.948;2023-05-09T07:12:41;4.47;;;2.72;;
79410;SDS011;69635;50.964;6.948;2023-05-09T07:15:07;5.78;;;1.92;;
79410;SDS011;69635;50.964;6.948;2023-05-09T07:17:33;2.97;;;1.83;;
79410;SDS011;69635;50.964;6.948;2023-05-09T07:19:58;3.40;;;2.33;;
79410;SDS011;69635;50.964;6.948;2023-05-09T07:22:24;2.63;;;1.75;;
79410;SDS011;69635;50.964;6.948;2023-05-09T07:24:52;3.00;;;1.38;;
79410;SDS011;69635;50.964;6.948;2023-05-09T07:27:18;2.65;;;1.70;;
79410;SDS011;69635;50.964;6.948;2023-05-09T07:29:43;1.55;;;1.13;;
79410;SDS011;69635;50.964;6.948;2023-05-09T07:32:09;1.92;;;1.60;;
79410;SDS011;69635;50.964;6.948;2023-05-09T07:34:35;2.03;;;0.85;;
79410;SDS011;69635;50.964;6.948;2023-05-09T07:37:00;1.67;;;0.90;;
79410;SDS011;69635;50.964;6.948;2023-05-09T07:39:25;2.15;;;1.02;;
79410;SDS011;69635;50.964;6.948;2023-05-09T07:41:51;2.78;;;1.42;;
79410;SDS011;69635;50.964;6.948;2023-05-09T07:44:16;1.42;;;1.05;;
79410;SDS011;69635;50.964;6.948;2023-05-09T07:46:50;1.60;;;1.23;;
79410;SDS011;69635;50.964;6.948;2023-05-09T07:49:16;2.28;;;1.10;;
79410;SDS011;69635;50.964;6.948;2023-05-09T07:51:41;1.90;;;1.05;;
79410;SDS011;69635;50.964;6.948;2023-05-09T07:54:07;1.33;;;0.90;;
79410;SDS011;69635;50.964;6.948;2023-05-09T07:56:34;2.35;;;1.13;;
79410;SDS011;69635;50.964;6.948;2023-05-09T07:58:59;1.67;;;1.20;;
79410;SDS011;69635;50.964;6.948;2023-05-09T08:01:25;1.08;;;0.90;;
79410;SDS011;69635;50.964;6.948;2023-05-09T08:03:51;2.20;;;1.15;;
79410;SDS011;69635;50.964;6.948;2023-05-09T08:06:19;1.10;;;0.73;;
79410;SDS011;69635;50.964;6.948;2023-05-09T08:08:44;1.48;;;0.80;;
79410;SDS011;69635;50.964;6.948;2023-05-09T08:11:10;0.82;;;0.68;;
79410;SDS011;69635;50.964;6.948;2023-05-09T08:13:35;1.23;;;0.45;;
79410;SDS011;69635;50.964;6.948;2023-05-09T08:16:00;1.98;;;0.70;;
79410;SDS011;69635;50.964;6.948;2023-05-09T08:18:26;0.90;;;0.70;;
79410;SDS011;69635;50.964;6.948;2023-05-09T08:20:52;1.30;;;0.90;;
79410;SDS011;69635;50.964;6.948;2023-05-09T08:23:17;0.63;;;0.50;;
79410;SDS011;69635;50.964;6.948;2023-05-09T08:25:42;1.15;;;0.50;;
79410;SDS011;69635;50.964;6.948;2023-05-09T08:28:08;0.82;;;0.63;;
79410;SDS011;69635;50.964;6.948;2023-05-09T08:30:34;1.55;;;0.52;;
79410;SDS011;69635;50.964;6.948;2023-05-09T08:32:59;0.95;;;0.50;;
79410;SDS011;69635;50.964;6.948;2023-05-09T08:35:25;1.35;;;0.70;;
79410;SDS011;69635;50.964;6.948;2023-05-09T08:37:50;1.15;;;0.60;;
79410;SDS011;69635;50.964;6.948;2023-05-09T08:40:15;1.00;;;0.60;;
79410;SDS011;69635;50.964;6.948;2023-05-09T08:42:41;0.77;;;0.50;;
79410;SDS011;69635;50.964;6.948;2023-05-09T08:45:09;1.17;;;0.38;;
79410;SDS011;69635;50.964;6.948;2023-05-09T08:47:38;0.82;;;0.40;;
79410;SDS011;69635;50.964;6.948;2023-05-09T08:50:05;0.80;;;0.77;;
79410;SDS011;69635;50.964;6.948;2023-05-09T08:52:32;1.35;;;0.38;;
79410;SDS011;69635;50.964;6.948;2023-05-09T08:54:59;0.68;;;0.40;;
79410;SDS011;69635;50.964;6.948;2023-05-09T08:57:28;0.68;;;0.40;;
79410;SDS011;69635;50.964;6.948;2023-05-09T08:59:54;0.60;;;0.47;;
79410;SDS011;69635;50.964;6.948;2023-05-09T09:02:20;0.52;;;0.38;;
79410;SDS011;69635;50.964;6.948;2023-05-09T09:04:46;0.45;;;0.40;;
79410;SDS011;69635;50.964;6.948;2023-05-09T09:07:11;0.85;;;0.50;;
79410;SDS011;69635;50.964;6.948;2023-05-09T09:09:42;0.70;;;0.47;;
79410;SDS011;69635;50.964;6.948;2023-05-09T09:12:09;0.70;;;0.38;;
79410;SDS011;69635;50.964;6.948;2023-05-09T09:14:37;0.50;;;0.40;;
79410;SDS011;69635;50.964;6.948;2023-05-09T09:17:06;0.70;;;0.52;;
79410;SDS011;69635;50.964;6.948;2023-05-09T09:19:33;0.35;;;0.35;;
79410;SDS011;69635;50.964;6.948;2023-05-09T09:22:01;0.88;;;0.38;;
79410;SDS011;69635;50.964;6.948;2023-05-09T09:24:28;0.40;;;0.35;;
79410;SDS011;69635;50.964;6.948;2023-05-09T09:26:55;0.80;;;0.43;;
79410;SDS011;69635;50.964;6.948;2023-05-09T09:29:20;1.02;;;0.50;;
79410;SDS011;69635;50.964;6.948;2023-05-09T09:31:47;0.82;;;0.40;;
79410;SDS011;69635;50.964;6.948;2023-05-09T09:34:20;0.65;;;0.40;;
79410;SDS011;69635;50.964;6.948;2023-05-09T09:36:46;1.35;;;0.70;;
79410;SDS011;69635;50.964;6.948;2023-05-09T09:39:12;0.52;;;0.40;;
79410;SDS011;69635;50.964;6.948;2023-05-09T09:41:38;0.40;;;0.28;;
79410;SDS011;69635;50.964;6.948;2023-05-09T09:44:05;0.80;;;0.40;;
79410;SDS011;69635;50.964;6.948;2023-05-09T09:46:42;1.23;;;0.35;;
79410;SDS011;69635;50.964;6.948;2023-05-09T09:49:16;0.50;;;0.40;;
79410;SDS011;69635;50.964;6.948;2023-05-09T09:51:42;0.60;;;0.40;;
79410;SDS011;69635;50.964;6.948;2023-05-09T09:54:09;0.88;;;0.40;;
79410;SDS011;69635;50.964;6.948;2023-05-09T09:56:38;0.85;;;0.47;;
79410;SDS011;69635;50.964;6.948;2023-05-09T09:59:18;1.27;;;0.40;;
79410;SDS011;69635;50.964;6.948;2023-05-09T10:02:01;0.77;;;0.60;;
79410;SDS011;69635;50.964;6.948;2023-05-09T10:04:32;0.68;;;0.43;;
79410;SDS011;69635;50.964;6.948;2023-05-09T10:06:59;0.98;;;0.70;;
79410;SDS011;69635;50.964;6.948;2023-05-09T10:09:30;1.02;;;0.55;;
79410;SDS011;69635;50.964;6.948;2023-05-09T10:11:56;2.97;;;0.50;;
79410;SDS011;69635;50.964;6.948;2023-05-09T10:14:26;0.95;;;0.60;;
79410;SDS011;69635;50.964;6.948;2023-05-09T10:16:54;1.40;;;0.60;;
79410;SDS011;69635;50.964;6.948;2023-05-09T10:19:21;0.40;;;0.40;;
79410;SDS011;69635;50.964;6.948;2023-05-09T10:21:51;0.82;;;0.55;;
79410;SDS011;69635;50.964;6.948;2023-05-09T10:24:25;2.10;;;0.60;;
79410;SDS011;69635;50.964;6.948;2023-05-09T10:29:23;2.17;;;0.60;;
79410;SDS011;69635;50.964;6.948;2023-05-09T10:31:54;1.95;;;0.63;;
79410;SDS011;69635;50.964;6.948;2023-05-09T10:34:23;1.50;;;0.60;;
79410;SDS011;69635;50.964;6.948;2023-05-09T10:36:50;1.45;;;0.70;;
79410;SDS011;69635;50.964;6.948;2023-05-09T10:39:15;0.77;;;0.60;;
79410;SDS011;69635;50.964;6.948;2023-05-09T10:41:41;1.58;;;0.85;;
79410;SDS011;69635;50.964;6.948;2023-05-09T10:44:07;0.55;;;0.40;;
79410;SDS011;69635;50.964;6.948;2023-05-09T10:46:34;0.68;;;0.50;;
79410;SDS011;69635;50.964;6.948;2023-05-09T10:49:00;1.90;;;0.70;;
79410;SDS011;69635;50.964;6.948;2023-05-09T10:51:27;1.10;;;1.00;;
79410;SDS011;69635;50.964;6.948;2023-05-09T10:53:53;1.15;;;0.68;;
79410;SDS011;69635;50.964;6.948;2023-05-09T10:58:48;0.75;;;0.57;;
79410;SDS011;69635;50.964;6.948;2023-05-09T11:01:13;0.47;;;0.45;;
79410;SDS011;69635;50.964;6.948;2023-05-09T11:04:12;0.93;;;0.52;;
79410;SDS011;69635;50.964;6.948;2023-05-09T11:14:31;0.47;;;0.47;;
79410;SDS011;69635;50.964;6.948;2023-05-09T11:17:03;1.00;;;0.75;;
79410;SDS011;69635;50.964;6.948;2023-05-09T11:20:16;0.90;;;0.60;;
79410;SDS011;69635;50.964;6.948;2023-05-09T11:29:50;2.25;;;1.00;;
79410;SDS011;69635;50.964;6.948;2023-05-09T11:32:17;1.10;;;0.73;;
79410;SDS011;69635;50.964;6.948;2023-05-09T11:34:43;1.02;;;0.80;;
79410;SDS011;69635;50.964;6.948;2023-05-09T11:37:10;0.80;;;0.70;;
79410;SDS011;69635;50.964;6.948;2023-05-09T11:42:20;0.80;;;0.70;;
79410;SDS011;69635;50.964;6.948;2023-05-09T11:44:47;0.57;;;0.40;;
79410;SDS011;69635;50.964;6.948;2023-05-09T11:47:13;0.50;;;0.40;;
79410;SDS011;69635;50.964;6.948;2023-05-09T11:49:42;1.13;;;0.70;;
79410;SDS011;69635;50.964;6.948;2023-05-09T11:52:08;2.20;;;1.08;;
79410;SDS011;69635;50.964;6.948;2023-05-09T11:54:35;0.70;;;0.50;;
79410;SDS011;69635;50.964;6.948;2023-05-09T11:57:02;0.50;;;0.40;;
79410;SDS011;69635;50.964;6.948;2023-05-09T11:59:29;0.55;;;0.38;;
79410;SDS011;69635;50.964;6.948;2023-05-09T12:01:55;0.47;;;0.40;;
79410;SDS011;69635;50.964;6.948;2023-05-09T12:04:20;0.95;;;0.57;;
79410;SDS011;69635;50.964;6.948;2023-05-09T12:06:46;0.77;;;0.57;;
79410;SDS011;69635;50.964;6.948;2023-05-09T12:09:14;0.40;;;0.30;;
79410;SDS011;69635;50.964;6.948;2023-05-09T12:11:46;1.00;;;0.50;;
79410;SDS011;69635;50.964;6.948;2023-05-09T12:14:24;0.65;;;0.47;;
79410;SDS011;69635;50.964;6.948;2023-05-09T12:16:53;0.80;;;0.63;;
79410;SDS011;69635;50.964;6.948;2023-05-09T12:19:19;0.90;;;0.60;;
79410;SDS011;69635;50.964;6.948;2023-05-09T12:21:45;0.80;;;0.47;;
79410;SDS011;69635;50.964;6.948;2023-05-09T12:24:10;1.42;;;0.60;;
79410;SDS011;69635;50.964;6.948;2023-05-09T12:26:35;1.05;;;0.70;;
79410;SDS011;69635;50.964;6.948;2023-05-09T12:29:01;1.50;;;0.68;;
79410;SDS011;69635;50.964;6.948;2023-05-09T12:31:26;1.40;;;0.80;;
79410;SDS011;69635;50.964;6.948;2023-05-09T12:33:52;0.85;;;0.55;;
79410;SDS011;69635;50.964;6.948;2023-05-09T12:36:18;1.42;;;0.82;;
79410;SDS011;69635;50.964;6.948;2023-05-09T12:38:53;1.30;;;0.80;;
79410;SDS011;69635;50.964;6.948;2023-05-09T12:41:19;1.55;;;0.88;;
79410;SDS011;69635;50.964;6.948;2023-05-09T12:43:46;1.58;;;0.93;;
79410;SDS011;69635;50.964;6.948;2023-05-09T12:46:16;1.83;;;0.90;;
79410;SDS011;69635;50.964;6.948;2023-05-09T12:48:43;1.10;;;0.60;;
79410;SDS011;69635;50.964;6.948;2023-05-09T12:51:09;0.65;;;0.50;;
79410;SDS011;69635;50.964;6.948;2023-05-09T12:53:39;0.52;;;0.43;;
79410;SDS011;69635;50.964;6.948;2023-05-09T12:56:15;0.90;;;0.52;;
79410;SDS011;69635;50.964;6.948;2023-05-09T12:58:47;1.23;;;0.63;;
79410;SDS011;69635;50.964;6.948;2023-05-09T13:01:16;1.25;;;0.55;;
79410;SDS011;69635;50.964;6.948;2023-05-09T13:03:43;0.80;;;0.60;;
79410;SDS011;69635;50.964;6.948;2023-05-09T13:06:12;1.10;;;0.85;;
79410;SDS011;69635;50.964;6.948;2023-05-09T13:08:38;1.10;;;0.77;;
79410;SDS011;69635;50.964;6.948;2023-05-09T13:11:04;0.70;;;0.50;;
79410;SDS011;69635;50.964;6.948;2023-05-09T13:13:29;0.80;;;0.60;;
79410;SDS011;69635;50.964;6.948;2023-05-09T13:15:55;0.88;;;0.50;;
79410;SDS011;69635;50.964;6.948;2023-05-09T13:18:21;0.50;;;0.50;;
79410;SDS011;69635;50.964;6.948;2023-05-09T13:20:48;0.82;;;0.50;;
79410;SDS011;69635;50.964;6.948;2023-05-09T13:23:14;0.55;;;0.45;;
79410;SDS011;69635;50.964;6.948;2023-05-09T13:25:40;0.80;;;0.50;;
79410;SDS011;69635;50.964;6.948;2023-05-09T13:28:05;1.00;;;0.70;;
79410;SDS011;69635;50.964;6.948;2023-05-09T13:30:31;0.50;;;0.38;;
79410;SDS011;69635;50.964;6.948;2023-05-09T13:32:56;1.05;;;0.50;;
79410;SDS011;69635;50.964;6.948;2023-05-09T13:35:22;0.45;;;0.40;;
79410;SDS011;69635;50.964;6.948;2023-05-09T13:37:47;0.40;;;0.40;;
79410;SDS011;69635;50.964;6.948;2023-05-09T13:40:13;0.63;;;0.35;;
79410;SDS011;69635;50.964;6.948;2023-05-09T13:42:39;0.50;;;0.50;;
79410;SDS011;69635;50.964;6.948;2023-05-09T13:45:05;0.47;;;0.38;;
79410;SDS011;69635;50.964;6.948;2023-05-09T13:47:30;0.70;;;0.60;;
79410;SDS011;69635;50.964;6.948;2023-05-09T13:49:56;0.82;;;0.52;;
79410;SDS011;69635;50.964;6.948;2023-05-09T13:52:21;0.68;;;0.50;;
79410;SDS011;69635;50.964;6.948;2023-05-09T13:54:48;0.75;;;0.57;;
79410;SDS011;69635;50.964;6.948;2023-05-09T13:57:13;0.85;;;0.80;;
79410;SDS011;69635;50.964;6.948;2023-05-09T13:59:39;0.80;;;0.50;;
79410;SDS011;69635;50.964;6.948;2023-05-09T14:02:07;0.98;;;0.60;;
79410;SDS011;69635;50.964;6.948;2023-05-09T14:04:34;1.52;;;0.73;;
79410;SDS011;69635;50.964;6.948;2023-05-09T14:07:00;0.88;;;0.47;;
79410;SDS011;69635;50.964;6.948;2023-05-09T14:09:26;0.75;;;0.60;;
79410;SDS011;69635;50.964;6.948;2023-05-09T14:11:52;0.68;;;0.50;;
79410;SDS011;69635;50.964;6.948;2023-05-09T14:14:19;0.38;;;0.30;;
79410;SDS011;69635;50.964;6.948;2023-05-09T14:16:45;1.48;;;0.70;;
79410;SDS011;69635;50.964;6.948;2023-05-09T14:19:12;0.75;;;0.45;;
79410;SDS011;69635;50.964;6.948;2023-05-09T14:21:39;1.05;;;0.60;;
79410;SDS011;69635;50.964;6.948;2023-05-09T14:24:05;1.00;;;0.73;;
79410;SDS011;69635;50.964;6.948;2023-05-09T14:26:31;4.57;;;2.00;;
79410;SDS011;69635;50.964;6.948;2023-05-09T14:28:57;3.47;;;1.30;;
79410;SDS011;69635;50.964;6.948;2023-05-09T14:31:22;3.45;;;1.40;;
79410;SDS011;69635;50.964;6.948;2023-05-09T14:33:48;3.00;;;1.42;;
79410;SDS011;69635;50.964;6.948;2023-05-09T14:36:13;2.22;;;1.42;;
79410;SDS011;69635;50.964;6.948;2023-05-09T14:38:38;1.80;;;0.90;;
79410;SDS011;69635;50.964;6.948;2023-05-09T14:41:05;2.03;;;1.10;;
79410;SDS011;69635;50.964;6.948;2023-05-09T14:43:31;1.30;;;0.70;;
79410;SDS011;69635;50.964;6.948;2023-05-09T14:45:58;1.38;;;0.85;;
79410;SDS011;69635;50.964;6.948;2023-05-09T14:48:23;1.40;;;0.90;;
79410;SDS011;69635;50.964;6.948;2023-05-09T14:50:48;1.23;;;0.85;;
79410;SDS011;69635;50.964;6.948;2023-05-09T14:53:18;1.45;;;0.98;;
79410;SDS011;69635;50.964;6.948;2023-05-09T14:55:43;1.42;;;1.00;;
79410;SDS011;69635;50.964;6.948;2023-05-09T14:58:08;1.58;;;1.05;;
79410;SDS011;69635;50.964;6.948;2023-05-09T15:00:37;1.52;;;1.17;;
79410;SDS011;69635;50.964;6.948;2023-05-09T15:03:02;1.45;;;0.70;;
79410;SDS011;69635;50.964;6.948;2023-05-09T15:05:28;2.33;;;1.30;;
79410;SDS011;69635;50.964;6.948;2023-05-09T15:07:53;1.60;;;1.10;;
79410;SDS011;69635;50.964;6.948;2023-05-09T15:10:19;1.27;;;0.90;;
79410;SDS011;69635;50.964;6.948;2023-05-09T15:12:44;5.43;;;1.90;;
79410;SDS011;69635;50.964;6.948;2023-05-09T15:15:10;1.10;;;1.00;;